sensor_id;sensor_type;location;lat;lon;timestamp;pressure;altitude;pressure_sealevel;temperature;humidity
64095;BME280;50353;51.420;5.682;2023-03-01T00:00:10;102816.16;;;0.05;67.85
64095;BME280;50353;51.420;5.682;2023-03-01T00:02:36;102810.03;;;0.03;68.10
64095;BME280;50353;51.420;5.682;2023-03-01T00:05:01;102811.06;;;0.74;66.35
64095;BME280;50353;51.420;5.682;2023-03-01T00:07:27;102813.75;;;0.19;67.62
64095;BME280;50353;51.420;5.682;2023-03-01T00:09:52;102814.56;;;0.14;67.81
64095;BME280;50353;51.420;5.682;2023-03-01T00:12:17;102817.63;;;-0.10;68.55
64095;BME280;50353;51.420;5.682;2023-03-01T00:14:42;102815.75;;;-0.20;68.99
64095;BME280;50353;51.420;5.682;2023-03-01T00:17:08;102808.00;;;-0.17;68.99
64095;BME280;50353;51.420;5.682;2023-03-01T00:19:33;102810.84;;;-0.02;68.95
64095;BME280;50353;51.420;5.682;2023-03-01T00:21:58;102808.06;;;-0.12;69.20
64095;BME280;50353;51.420;5.682;2023-03-01T00:24:24;102813.47;;;0.00;68.71
64095;BME280;50353;51.420;5.682;2023-03-01T00:26:53;102795.16;;;-0.08;68.42
64095;BME280;50353;51.420;5.682;2023-03-01T00:29:20;102811.41;;;-0.21;69.68
64095;BME280;50353;51.420;5.682;2023-03-01T00:31:45;102805.63;;;-0.03;68.37
64095;BME280;50353;51.420;5.682;2023-03-01T00:34:11;102808.31;;;0.03;68.79
64095;BME280;50353;51.420;5.682;2023-03-01T00:36:37;102804.09;;;0.10;68.79
64095;BME280;50353;51.420;5.682;2023-03-01T00:39:05;102786.59;;;-0.01;68.28
64095;BME280;50353;51.420;5.682;2023-03-01T00:41:30;102798.03;;;0.11;67.97
64095;BME280;50353;51.420;5.682;2023-03-01T00:43:56;102803.72;;;-0.15;69.47
64095;BME280;50353;51.420;5.682;2023-03-01T00:46:24;102801.03;;;-0.20;68.97
64095;BME280;50353;51.420;5.682;2023-03-01T00:48:50;102796.13;;;-0.01;68.59
64095;BME280;50353;51.420;5.682;2023-03-01T00:51:18;102787.50;;;0.02;68.01
64095;BME280;50353;51.420;5.682;2023-03-01T00:53:44;102784.91;;;0.02;68.50
64095;BME280;50353;51.420;5.682;2023-03-01T00:56:11;102783.47;;;-0.33;68.91
64095;BME280;50353;51.420;5.682;2023-03-01T00:58:37;102784.44;;;-0.28;68.87
64095;BME280;50353;51.420;5.682;2023-03-01T01:01:10;102781.13;;;-0.19;68.28
64095;BME280;50353;51.420;5.682;2023-03-01T01:04:04;102775.66;;;-0.35;68.92
64095;BME280;50353;51.420;5.682;2023-03-01T01:06:33;102779.38;;;-0.19;68.91
64095;BME280;50353;51.420;5.682;2023-03-01T01:08:59;102778.16;;;-0.42;69.32
64095;BME280;50353;51.420;5.682;2023-03-01T01:11:26;102771.09;;;-0.48;70.28
64095;BME280;50353;51.420;5.682;2023-03-01T01:13:52;102775.78;;;-0.28;69.60
64095;BME280;50353;51.420;5.682;2023-03-01T01:16:19;102778.81;;;-0.53;69.01
64095;BME280;50353;51.420;5.682;2023-03-01T01:18:45;102772.66;;;-0.59;69.92
64095;BME280;50353;51.420;5.682;2023-03-01T01:21:14;102765.84;;;-0.53;69.79
64095;BME280;50353;51.420;5.682;2023-03-01T01:23:41;102766.25;;;-0.26;69.05
64095;BME280;50353;51.420;5.682;2023-03-01T01:26:08;102742.28;;;-0.63;69.41
64095;BME280;50353;51.420;5.682;2023-03-01T01:28:34;102747.16;;;-0.30;69.87
64095;BME280;50353;51.420;5.682;2023-03-01T01:31:00;102743.34;;;-0.51;69.20
64095;BME280;50353;51.420;5.682;2023-03-01T01:33:26;102736.63;;;-0.39;69.12
64095;BME280;50353;51.420;5.682;2023-03-01T01:35:51;102735.88;;;-0.30;68.89
64095;BME280;50353;51.420;5.682;2023-03-01T01:38:17;102738.22;;;-0.47;69.27
64095;BME280;50353;51.420;5.682;2023-03-01T01:40:44;102737.47;;;-0.40;69.78
64095;BME280;50353;51.420;5.682;2023-03-01T01:43:25;102723.22;;;-0.65;70.18
64095;BME280;50353;51.420;5.682;2023-03-01T01:45:53;102724.50;;;-0.37;69.16
64095;BME280;50353;51.420;5.682;2023-03-01T01:48:22;102714.75;;;-0.51;69.34
64095;BME280;50353;51.420;5.682;2023-03-01T01:50:55;102725.53;;;-0.27;69.07
64095;BME280;50353;51.420;5.682;2023-03-01T01:53:22;102728.78;;;-0.42;68.87
64095;BME280;50353;51.420;5.682;2023-03-01T01:55:52;102722.69;;;-0.44;68.92
64095;BME280;50353;51.420;5.682;2023-03-01T01:58:20;102718.50;;;-0.35;68.68
64095;BME280;50353;51.420;5.682;2023-03-01T02:00:46;102712.53;;;-0.27;68.51
64095;BME280;50353;51.420;5.682;2023-03-01T02:03:17;102714.91;;;-0.41;68.22
64095;BME280;50353;51.420;5.682;2023-03-01T02:08:16;102705.75;;;-0.73;69.52
64095;BME280;50353;51.420;5.682;2023-03-01T02:10:44;102709.25;;;-0.71;69.27
64095;BME280;50353;51.420;5.682;2023-03-01T02:13:10;102703.88;;;-0.83;69.72
64095;BME280;50353;51.420;5.682;2023-03-01T02:15:38;102702.44;;;-0.65;69.14
64095;BME280;50353;51.420;5.682;2023-03-01T02:18:07;102708.44;;;-0.68;69.21
64095;BME280;50353;51.420;5.682;2023-03-01T02:23:14;102708.38;;;-0.71;70.35
64095;BME280;50353;51.420;5.682;2023-03-01T02:25:52;102708.25;;;-0.79;70.40
64095;BME280;50353;51.420;5.682;2023-03-01T02:28:28;102691.81;;;-0.78;69.75
64095;BME280;50353;51.420;5.682;2023-03-01T02:30:54;102711.09;;;-0.65;70.28
64095;BME280;50353;51.420;5.682;2023-03-01T02:33:38;102701.13;;;-0.91;70.27
64095;BME280;50353;51.420;5.682;2023-03-01T02:36:08;102699.34;;;-0.93;70.62
64095;BME280;50353;51.420;5.682;2023-03-01T02:38:34;102693.59;;;-0.75;70.65
64095;BME280;50353;51.420;5.682;2023-03-01T02:41:02;102699.31;;;-0.95;70.93
64095;BME280;50353;51.420;5.682;2023-03-01T02:43:31;102706.34;;;-0.89;70.80
64095;BME280;50353;51.420;5.682;2023-03-01T02:46:04;102699.19;;;-1.01;71.18
64095;BME280;50353;51.420;5.682;2023-03-01T02:48:43;102685.31;;;-1.05;70.97
64095;BME280;50353;51.420;5.682;2023-03-01T02:54:16;102695.59;;;-1.09;72.47
64095;BME280;50353;51.420;5.682;2023-03-01T02:56:44;102689.59;;;-1.05;72.27
64095;BME280;50353;51.420;5.682;2023-03-01T02:59:13;102692.94;;;-1.12;72.80
64095;BME280;50353;51.420;5.682;2023-03-01T03:01:38;102701.47;;;-1.20;72.47
64095;BME280;50353;51.420;5.682;2023-03-01T03:04:10;102690.09;;;-1.26;72.51
64095;BME280;50353;51.420;5.682;2023-03-01T03:06:36;102704.50;;;-0.95;71.31
64095;BME280;50353;51.420;5.682;2023-03-01T03:09:03;102698.06;;;-1.17;72.05
64095;BME280;50353;51.420;5.682;2023-03-01T03:11:29;102701.78;;;-1.03;72.19
64095;BME280;50353;51.420;5.682;2023-03-01T03:13:55;102698.38;;;-0.98;72.09
64095;BME280;50353;51.420;5.682;2023-03-01T03:16:21;102698.25;;;-1.08;72.32
64095;BME280;50353;51.420;5.682;2023-03-01T03:18:48;102696.06;;;-1.30;72.60
64095;BME280;50353;51.420;5.682;2023-03-01T03:21:14;102692.16;;;-1.08;72.53
64095;BME280;50353;51.420;5.682;2023-03-01T03:23:40;102700.13;;;-0.97;72.24
64095;BME280;50353;51.420;5.682;2023-03-01T03:26:05;102695.00;;;-0.93;72.15
64095;BME280;50353;51.420;5.682;2023-03-01T03:28:34;102700.19;;;-0.94;72.56
64095;BME280;50353;51.420;5.682;2023-03-01T03:31:00;102703.72;;;-0.91;72.11
64095;BME280;50353;51.420;5.682;2023-03-01T03:33:30;102696.66;;;-0.99;72.64
64095;BME280;50353;51.420;5.682;2023-03-01T03:35:56;102702.06;;;-0.87;72.37
64095;BME280;50353;51.420;5.682;2023-03-01T03:38:21;102691.28;;;-1.09;72.74
64095;BME280;50353;51.420;5.682;2023-03-01T03:40:49;102691.31;;;-1.07;72.74
64095;BME280;50353;51.420;5.682;2023-03-01T03:43:18;102690.75;;;-0.91;72.24
64095;BME280;50353;51.420;5.682;2023-03-01T03:45:45;102692.06;;;-1.14;73.27
64095;BME280;50353;51.420;5.682;2023-03-01T03:48:10;102686.66;;;-1.25;73.17
64095;BME280;50353;51.420;5.682;2023-03-01T03:50:38;102700.63;;;-1.18;72.97
64095;BME280;50353;51.420;5.682;2023-03-01T03:53:06;102688.31;;;-1.29;73.44
64095;BME280;50353;51.420;5.682;2023-03-01T03:55:32;102690.66;;;-1.43;73.77
64095;BME280;50353;51.420;5.682;2023-03-01T03:58:00;102687.25;;;-1.40;73.85
64095;BME280;50353;51.420;5.682;2023-03-01T04:00:32;102679.19;;;-1.07;73.02
64095;BME280;50353;51.420;5.682;2023-03-01T04:02:57;102679.16;;;-1.10;72.84
64095;BME280;50353;51.420;5.682;2023-03-01T04:05:23;102686.78;;;-1.17;73.33
64095;BME280;50353;51.420;5.682;2023-03-01T04:07:48;102681.44;;;-1.27;73.37
64095;BME280;50353;51.420;5.682;2023-03-01T04:10:16;102672.38;;;-1.49;73.53
64095;BME280;50353;51.420;5.682;2023-03-01T04:12:42;102678.28;;;-1.10;73.13
64095;BME280;50353;51.420;5.682;2023-03-01T04:15:09;102668.44;;;-1.28;73.53
64095;BME280;50353;51.420;5.682;2023-03-01T04:17:42;102666.53;;;-1.37;73.89
64095;BME280;50353;51.420;5.682;2023-03-01T04:20:09;102666.06;;;-1.63;74.82
64095;BME280;50353;51.420;5.682;2023-03-01T04:22:36;102661.16;;;-1.48;74.45
64095;BME280;50353;51.420;5.682;2023-03-01T04:25:01;102664.81;;;-1.37;73.74
64095;BME280;50353;51.420;5.682;2023-03-01T04:27:27;102659.81;;;-1.26;73.91
64095;BME280;50353;51.420;5.682;2023-03-01T04:29:52;102664.72;;;-1.43;74.54
64095;BME280;50353;51.420;5.682;2023-03-01T04:32:18;102659.41;;;-1.49;74.70
64095;BME280;50353;51.420;5.682;2023-03-01T04:34:43;102655.66;;;-1.17;74.30
64095;BME280;50353;51.420;5.682;2023-03-01T04:37:09;102654.56;;;-1.30;74.35
64095;BME280;50353;51.420;5.682;2023-03-01T04:39:34;102640.59;;;-1.39;73.87
64095;BME280;50353;51.420;5.682;2023-03-01T04:42:10;102635.50;;;-1.32;74.12
64095;BME280;50353;51.420;5.682;2023-03-01T04:44:35;102632.09;;;-1.28;73.53
64095;BME280;50353;51.420;5.682;2023-03-01T04:47:01;102632.03;;;-1.33;73.71
64095;BME280;50353;51.420;5.682;2023-03-01T04:49:26;102624.31;;;-1.30;73.28
64095;BME280;50353;51.420;5.682;2023-03-01T04:51:51;102628.28;;;-1.49;73.71
64095;BME280;50353;51.420;5.682;2023-03-01T04:54:16;102625.03;;;-1.39;73.63
64095;BME280;50353;51.420;5.682;2023-03-01T04:56:42;102635.94;;;-1.55;74.36
64095;BME280;50353;51.420;5.682;2023-03-01T04:59:07;102636.97;;;-1.47;74.59
64095;BME280;50353;51.420;5.682;2023-03-01T05:01:35;102639.63;;;-1.44;73.66
64095;BME280;50353;51.420;5.682;2023-03-01T05:04:00;102644.63;;;-1.53;74.59
64095;BME280;50353;51.420;5.682;2023-03-01T05:06:28;102643.78;;;-1.52;74.45
64095;BME280;50353;51.420;5.682;2023-03-01T05:08:53;102643.16;;;-1.40;74.03
64095;BME280;50353;51.420;5.682;2023-03-01T05:11:19;102650.00;;;-1.44;73.99
64095;BME280;50353;51.420;5.682;2023-03-01T05:13:44;102649.09;;;-1.46;74.41
64095;BME280;50353;51.420;5.682;2023-03-01T05:16:09;102636.84;;;-1.53;74.61
64095;BME280;50353;51.420;5.682;2023-03-01T05:18:36;102630.59;;;-1.64;73.79
64095;BME280;50353;51.420;5.682;2023-03-01T05:21:06;102639.78;;;-1.36;73.90
64095;BME280;50353;51.420;5.682;2023-03-01T05:23:33;102636.94;;;-1.50;74.42
64095;BME280;50353;51.420;5.682;2023-03-01T05:25:59;102631.97;;;-1.38;74.22
64095;BME280;50353;51.420;5.682;2023-03-01T05:28:25;102622.41;;;-1.40;74.26
64095;BME280;50353;51.420;5.682;2023-03-01T05:30:51;102621.59;;;-1.36;74.14
64095;BME280;50353;51.420;5.682;2023-03-01T05:33:17;102614.41;;;-1.51;74.81
64095;BME280;50353;51.420;5.682;2023-03-01T05:35:43;102609.06;;;-1.60;74.84
64095;BME280;50353;51.420;5.682;2023-03-01T05:38:10;102602.59;;;-1.35;74.51
64095;BME280;50353;51.420;5.682;2023-03-01T05:40:39;102605.22;;;-1.33;73.86
64095;BME280;50353;51.420;5.682;2023-03-01T05:43:05;102605.38;;;-1.24;73.34
64095;BME280;50353;51.420;5.682;2023-03-01T05:45:31;102599.34;;;-1.71;75.23
64095;BME280;50353;51.420;5.682;2023-03-01T05:47:57;102608.91;;;-1.66;74.33
64095;BME280;50353;51.420;5.682;2023-03-01T05:50:28;102604.91;;;-1.50;73.96
64095;BME280;50353;51.420;5.682;2023-03-01T05:53:04;102601.63;;;-1.42;74.41
64095;BME280;50353;51.420;5.682;2023-03-01T05:55:33;102603.50;;;-1.33;73.86
64095;BME280;50353;51.420;5.682;2023-03-01T05:58:01;102582.28;;;-1.59;73.88
64095;BME280;50353;51.420;5.682;2023-03-01T06:00:27;102597.19;;;-1.47;73.15
64095;BME280;50353;51.420;5.682;2023-03-01T06:02:54;102602.63;;;-1.81;73.30
64095;BME280;50353;51.420;5.682;2023-03-01T06:05:20;102600.13;;;-1.75;73.09
64095;BME280;50353;51.420;5.682;2023-03-01T06:07:45;102599.00;;;-1.89;72.93
64095;BME280;50353;51.420;5.682;2023-03-01T06:10:12;102603.41;;;-1.85;73.11
64095;BME280;50353;51.420;5.682;2023-03-01T06:12:39;102604.13;;;-1.92;72.69
64095;BME280;50353;51.420;5.682;2023-03-01T06:15:06;102607.00;;;-1.77;73.99
64095;BME280;50353;51.420;5.682;2023-03-01T06:17:36;102605.78;;;-1.96;74.87
64095;BME280;50353;51.420;5.682;2023-03-01T06:20:07;102609.38;;;-1.89;74.81
64095;BME280;50353;51.420;5.682;2023-03-01T06:22:33;102613.66;;;-1.90;74.30
64095;BME280;50353;51.420;5.682;2023-03-01T06:24:58;102614.63;;;-1.84;74.13
64095;BME280;50353;51.420;5.682;2023-03-01T06:27:23;102617.72;;;-1.58;74.33
64095;BME280;50353;51.420;5.682;2023-03-01T06:29:49;102617.31;;;-1.80;73.63
64095;BME280;50353;51.420;5.682;2023-03-01T06:32:14;102612.72;;;-1.95;73.81
64095;BME280;50353;51.420;5.682;2023-03-01T06:34:39;102612.47;;;-1.61;74.19
64095;BME280;50353;51.420;5.682;2023-03-01T06:37:06;102613.16;;;-1.72;74.88
64095;BME280;50353;51.420;5.682;2023-03-01T06:39:32;102618.22;;;-1.78;74.98
64095;BME280;50353;51.420;5.682;2023-03-01T06:41:58;102615.81;;;-1.68;74.90
64095;BME280;50353;51.420;5.682;2023-03-01T06:44:23;102612.16;;;-1.80;74.65
64095;BME280;50353;51.420;5.682;2023-03-01T06:46:49;102615.78;;;-1.70;74.87
64095;BME280;50353;51.420;5.682;2023-03-01T06:49:14;102609.81;;;-1.66;75.28
64095;BME280;50353;51.420;5.682;2023-03-01T06:51:41;102609.16;;;-1.54;74.91
64095;BME280;50353;51.420;5.682;2023-03-01T06:54:06;102609.25;;;-1.49;74.85
64095;BME280;50353;51.420;5.682;2023-03-01T06:56:32;102601.41;;;-1.04;73.68
64095;BME280;50353;51.420;5.682;2023-03-01T06:58:58;102595.44;;;-0.98;72.97
64095;BME280;50353;51.420;5.682;2023-03-01T07:01:23;102592.88;;;-0.96;73.52
64095;BME280;50353;51.420;5.682;2023-03-01T07:03:48;102593.69;;;-1.00;74.46
64095;BME280;50353;51.420;5.682;2023-03-01T07:06:14;102595.44;;;-0.99;74.33
64095;BME280;50353;51.420;5.682;2023-03-01T07:08:39;102594.88;;;-0.78;73.33
64095;BME280;50353;51.420;5.682;2023-03-01T07:11:04;102601.00;;;-0.76;73.83
64095;BME280;50353;51.420;5.682;2023-03-01T07:13:31;102597.69;;;-0.64;72.71
64095;BME280;50353;51.420;5.682;2023-03-01T07:15:56;102607.88;;;-0.78;73.29
64095;BME280;50353;51.420;5.682;2023-03-01T07:18:21;102609.09;;;-1.10;74.24
64095;BME280;50353;51.420;5.682;2023-03-01T07:20:47;102610.13;;;-0.43;72.32
64095;BME280;50353;51.420;5.682;2023-03-01T07:23:12;102610.59;;;-0.71;73.15
64095;BME280;50353;51.420;5.682;2023-03-01T07:25:37;102611.66;;;-0.55;72.17
64095;BME280;50353;51.420;5.682;2023-03-01T07:28:03;102615.66;;;-0.19;71.24
64095;BME280;50353;51.420;5.682;2023-03-01T07:30:28;102612.84;;;-0.34;72.07
64095;BME280;50353;51.420;5.682;2023-03-01T07:32:57;102618.44;;;-0.02;71.57
64095;BME280;50353;51.420;5.682;2023-03-01T07:35:23;102611.59;;;0.04;71.69
64095;BME280;50353;51.420;5.682;2023-03-01T07:37:49;102616.94;;;0.17;70.87
64095;BME280;50353;51.420;5.682;2023-03-01T07:40:15;102611.53;;;-0.03;70.17
64095;BME280;50353;51.420;5.682;2023-03-01T07:42:40;102618.72;;;0.20;70.22
64095;BME280;50353;51.420;5.682;2023-03-01T07:45:06;102627.22;;;0.07;70.61
64095;BME280;50353;51.420;5.682;2023-03-01T07:47:32;102623.91;;;0.19;69.98
64095;BME280;50353;51.420;5.682;2023-03-01T07:49:58;102631.19;;;0.49;70.13
64095;BME280;50353;51.420;5.682;2023-03-01T07:52:23;102625.34;;;0.70;69.16
64095;BME280;50353;51.420;5.682;2023-03-01T07:54:48;102622.00;;;0.85;68.96
64095;BME280;50353;51.420;5.682;2023-03-01T07:57:14;102628.69;;;0.60;70.91
64095;BME280;50353;51.420;5.682;2023-03-01T07:59:39;102626.25;;;0.75;68.78
64095;BME280;50353;51.420;5.682;2023-03-01T08:02:05;102626.78;;;0.43;71.03
64095;BME280;50353;51.420;5.682;2023-03-01T08:04:30;102621.78;;;0.60;69.93
64095;BME280;50353;51.420;5.682;2023-03-01T08:06:55;102625.56;;;0.93;68.92
64095;BME280;50353;51.420;5.682;2023-03-01T08:09:21;102624.81;;;1.07;68.98
64095;BME280;50353;51.420;5.682;2023-03-01T08:11:46;102616.34;;;1.39;67.10
64095;BME280;50353;51.420;5.682;2023-03-01T08:14:12;102616.16;;;1.12;68.17
64095;BME280;50353;51.420;5.682;2023-03-01T08:16:37;102611.53;;;0.80;69.33
64095;BME280;50353;51.420;5.682;2023-03-01T08:19:05;102609.44;;;1.44;66.89
64095;BME280;50353;51.420;5.682;2023-03-01T08:21:30;102597.19;;;1.32;67.66
64095;BME280;50353;51.420;5.682;2023-03-01T08:23:55;102610.38;;;1.55;68.75
64095;BME280;50353;51.420;5.682;2023-03-01T08:26:21;102607.81;;;1.61;67.19
64095;BME280;50353;51.420;5.682;2023-03-01T08:28:47;102595.56;;;1.48;66.59
64095;BME280;50353;51.420;5.682;2023-03-01T08:33:39;102598.47;;;2.02;65.74
64095;BME280;50353;51.420;5.682;2023-03-01T08:36:05;102591.53;;;2.13;64.89
64095;BME280;50353;51.420;5.682;2023-03-01T08:38:32;102588.03;;;2.02;66.53
64095;BME280;50353;51.420;5.682;2023-03-01T08:41:00;102591.59;;;2.38;63.89
64095;BME280;50353;51.420;5.682;2023-03-01T08:43:25;102588.97;;;2.26;64.13
64095;BME280;50353;51.420;5.682;2023-03-01T08:45:51;102593.34;;;2.36;65.45
64095;BME280;50353;51.420;5.682;2023-03-01T08:48:16;102588.19;;;2.82;64.35
64095;BME280;50353;51.420;5.682;2023-03-01T08:50:41;102590.75;;;2.54;63.17
64095;BME280;50353;51.420;5.682;2023-03-01T08:53:07;102582.97;;;2.70;63.50
64095;BME280;50353;51.420;5.682;2023-03-01T08:55:32;102573.38;;;2.84;63.65
64095;BME280;50353;51.420;5.682;2023-03-01T08:57:57;102569.91;;;2.96;63.11
64095;BME280;50353;51.420;5.682;2023-03-01T09:00:24;102579.47;;;2.90;62.97
64095;BME280;50353;51.420;5.682;2023-03-01T09:02:50;102581.19;;;2.87;63.04
64095;BME280;50353;51.420;5.682;2023-03-01T09:05:15;102576.00;;;2.94;62.68
64095;BME280;50353;51.420;5.682;2023-03-01T09:07:40;102574.25;;;3.20;62.18
64095;BME280;50353;51.420;5.682;2023-03-01T09:10:06;102568.97;;;3.47;62.69
64095;BME280;50353;51.420;5.682;2023-03-01T09:12:31;102564.59;;;3.53;62.02
64095;BME280;50353;51.420;5.682;2023-03-01T09:14:56;102566.34;;;3.44;60.96
64095;BME280;50353;51.420;5.682;2023-03-01T09:17:22;102568.91;;;3.59;60.48
64095;BME280;50353;51.420;5.682;2023-03-01T09:19:47;102560.19;;;3.57;60.36
64095;BME280;50353;51.420;5.682;2023-03-01T09:22:13;102570.72;;;3.29;59.44
64095;BME280;50353;51.420;5.682;2023-03-01T09:24:38;102573.34;;;3.20;60.34
64095;BME280;50353;51.420;5.682;2023-03-01T09:27:04;102561.06;;;3.59;61.07
64095;BME280;50353;51.420;5.682;2023-03-01T09:29:35;102546.84;;;4.20;58.13
64095;BME280;50353;51.420;5.682;2023-03-01T09:32:01;102560.75;;;4.30;57.42
64095;BME280;50353;51.420;5.682;2023-03-01T09:34:26;102555.69;;;3.96;59.51
64095;BME280;50353;51.420;5.682;2023-03-01T09:36:52;102555.31;;;4.58;56.54
64095;BME280;50353;51.420;5.682;2023-03-01T09:39:18;102540.22;;;4.88;57.89
64095;BME280;50353;51.420;5.682;2023-03-01T09:41:57;102551.81;;;4.64;56.47
64095;BME280;50353;51.420;5.682;2023-03-01T09:44:47;102545.13;;;4.16;57.27
64095;BME280;50353;51.420;5.682;2023-03-01T09:47:19;102544.88;;;4.53;57.00
64095;BME280;50353;51.420;5.682;2023-03-01T09:49:57;102529.50;;;4.04;56.74
64095;BME280;50353;51.420;5.682;2023-03-01T09:54:54;102530.19;;;5.30;55.53
64095;BME280;50353;51.420;5.682;2023-03-01T09:57:28;102530.25;;;4.25;55.26
64095;BME280;50353;51.420;5.682;2023-03-01T10:03:02;102523.91;;;4.55;55.38
64095;BME280;50353;51.420;5.682;2023-03-01T10:05:41;102517.78;;;4.62;56.31
64095;BME280;50353;51.420;5.682;2023-03-01T10:10:54;102511.63;;;4.63;54.55
64095;BME280;50353;51.420;5.682;2023-03-01T10:13:50;102505.22;;;4.97;54.43
64095;BME280;50353;51.420;5.682;2023-03-01T10:16:40;102494.00;;;5.63;52.89
64095;BME280;50353;51.420;5.682;2023-03-01T10:19:14;102490.47;;;4.86;53.81
64095;BME280;50353;51.420;5.682;2023-03-01T10:21:45;102504.75;;;4.50;53.68
64095;BME280;50353;51.420;5.682;2023-03-01T10:24:16;102495.59;;;4.97;53.97
64095;BME280;50353;51.420;5.682;2023-03-01T10:26:53;102481.63;;;4.98;53.74
64095;BME280;50353;51.420;5.682;2023-03-01T10:29:23;102477.72;;;5.36;52.34
64095;BME280;50353;51.420;5.682;2023-03-01T10:31:52;102468.94;;;4.53;52.31
64095;BME280;50353;51.420;5.682;2023-03-01T10:34:19;102471.50;;;4.61;52.81
64095;BME280;50353;51.420;5.682;2023-03-01T10:36:48;102454.50;;;5.01;52.07
64095;BME280;50353;51.420;5.682;2023-03-01T10:39:17;102472.63;;;5.19;51.56
64095;BME280;50353;51.420;5.682;2023-03-01T10:42:01;102457.69;;;5.31;51.84
64095;BME280;50353;51.420;5.682;2023-03-01T10:44:43;102465.94;;;4.95;52.49
64095;BME280;50353;51.420;5.682;2023-03-01T10:47:24;102468.72;;;4.78;52.20
64095;BME280;50353;51.420;5.682;2023-03-01T10:52:26;102458.50;;;6.00;51.75
64095;BME280;50353;51.420;5.682;2023-03-01T10:57:40;102470.88;;;5.23;51.23
64095;BME280;50353;51.420;5.682;2023-03-01T11:00:23;102464.06;;;5.06;49.97
64095;BME280;50353;51.420;5.682;2023-03-01T11:03:12;102460.09;;;5.46;49.86
64095;BME280;50353;51.420;5.682;2023-03-01T11:05:37;102469.66;;;5.50;50.04
64095;BME280;50353;51.420;5.682;2023-03-01T11:08:32;102462.66;;;6.15;49.53
64095;BME280;50353;51.420;5.682;2023-03-01T11:13:55;102474.88;;;6.20;48.79
64095;BME280;50353;51.420;5.682;2023-03-01T11:16:40;102468.28;;;6.46;48.69
64095;BME280;50353;51.420;5.682;2023-03-01T11:21:54;102459.16;;;6.69;49.06
64095;BME280;50353;51.420;5.682;2023-03-01T11:24:27;102463.44;;;6.21;48.68
64095;BME280;50353;51.420;5.682;2023-03-01T11:26:55;102445.69;;;6.37;48.00
64095;BME280;50353;51.420;5.682;2023-03-01T11:29:32;102442.72;;;6.57;48.22
64095;BME280;50353;51.420;5.682;2023-03-01T11:32:02;102439.19;;;6.60;47.25
64095;BME280;50353;51.420;5.682;2023-03-01T11:37:44;102452.69;;;6.38;47.64
64095;BME280;50353;51.420;5.682;2023-03-01T11:43:00;102436.72;;;6.98;47.99
64095;BME280;50353;51.420;5.682;2023-03-01T11:45:38;102439.75;;;6.76;47.54
64095;BME280;50353;51.420;5.682;2023-03-01T11:48:34;102448.22;;;6.43;46.89
64095;BME280;50353;51.420;5.682;2023-03-01T11:51:09;102442.56;;;7.14;46.65
64095;BME280;50353;51.420;5.682;2023-03-01T11:53:51;102441.19;;;6.94;47.11
64095;BME280;50353;51.420;5.682;2023-03-01T11:56:34;102416.41;;;7.06;48.16
64095;BME280;50353;51.420;5.682;2023-03-01T12:02:10;102415.16;;;6.82;46.91
64095;BME280;50353;51.420;5.682;2023-03-01T12:05:02;102422.00;;;7.33;46.59
64095;BME280;50353;51.420;5.682;2023-03-01T12:07:42;102420.81;;;6.57;47.51
64095;BME280;50353;51.420;5.682;2023-03-01T12:10:20;102418.66;;;6.81;48.03
64095;BME280;50353;51.420;5.682;2023-03-01T12:13:04;102418.25;;;7.01;47.37
64095;BME280;50353;51.420;5.682;2023-03-01T12:15:42;102418.44;;;6.93;47.22
64095;BME280;50353;51.420;5.682;2023-03-01T12:23:50;102412.81;;;6.13;46.96
64095;BME280;50353;51.420;5.682;2023-03-01T12:26:31;102408.38;;;7.14;46.77
64095;BME280;50353;51.420;5.682;2023-03-01T12:29:37;102414.66;;;6.59;47.06
64095;BME280;50353;51.420;5.682;2023-03-01T12:34:59;102385.78;;;7.03;45.47
64095;BME280;50353;51.420;5.682;2023-03-01T12:37:45;102400.13;;;6.87;47.51
64095;BME280;50353;51.420;5.682;2023-03-01T12:46:02;102381.63;;;7.35;44.65
64095;BME280;50353;51.420;5.682;2023-03-01T12:51:24;102372.25;;;7.22;44.95
64095;BME280;50353;51.420;5.682;2023-03-01T12:53:53;102377.44;;;6.83;46.69
64095;BME280;50353;51.420;5.682;2023-03-01T12:56:23;102362.94;;;7.07;44.60
64095;BME280;50353;51.420;5.682;2023-03-01T12:59:15;102351.81;;;6.92;45.39
64095;BME280;50353;51.420;5.682;2023-03-01T13:01:51;102354.66;;;7.25;45.57
64095;BME280;50353;51.420;5.682;2023-03-01T13:04:31;102339.53;;;7.35;47.21
64095;BME280;50353;51.420;5.682;2023-03-01T13:09:59;102332.97;;;7.14;46.20
64095;BME280;50353;51.420;5.682;2023-03-01T13:17:49;102331.22;;;7.15;47.23
64095;BME280;50353;51.420;5.682;2023-03-01T13:20:18;102325.81;;;7.21;46.88
64095;BME280;50353;51.420;5.682;2023-03-01T13:22:45;102312.56;;;7.63;46.85
64095;BME280;50353;51.420;5.682;2023-03-01T13:25:19;102317.31;;;7.49;46.11
64095;BME280;50353;51.420;5.682;2023-03-01T13:27:45;102299.38;;;7.27;45.02
64095;BME280;50353;51.420;5.682;2023-03-01T13:30:38;102305.09;;;7.46;47.23
64095;BME280;50353;51.420;5.682;2023-03-01T13:35:48;102299.72;;;7.87;45.42
64095;BME280;50353;51.420;5.682;2023-03-01T13:38:48;102301.94;;;7.30;45.06
64095;BME280;50353;51.420;5.682;2023-03-01T13:46:38;102282.16;;;7.51;47.45
64095;BME280;50353;51.420;5.682;2023-03-01T13:49:03;102275.63;;;7.30;44.72
64095;BME280;50353;51.420;5.682;2023-03-01T13:51:28;102272.34;;;7.58;46.46
64095;BME280;50353;51.420;5.682;2023-03-01T13:53:55;102276.03;;;7.11;45.65
64095;BME280;50353;51.420;5.682;2023-03-01T13:56:27;102267.34;;;7.09;46.79
64095;BME280;50353;51.420;5.682;2023-03-01T13:59:01;102261.94;;;7.16;45.53
64095;BME280;50353;51.420;5.682;2023-03-01T14:01:30;102257.91;;;6.99;45.46
64095;BME280;50353;51.420;5.682;2023-03-01T14:03:57;102264.84;;;7.03;44.45
64095;BME280;50353;51.420;5.682;2023-03-01T14:06:25;102253.22;;;7.14;45.84
64095;BME280;50353;51.420;5.682;2023-03-01T14:09:01;102252.44;;;6.69;45.54
64095;BME280;50353;51.420;5.682;2023-03-01T14:11:38;102259.84;;;6.91;46.60
64095;BME280;50353;51.420;5.682;2023-03-01T14:17:15;102242.88;;;7.06;45.99
64095;BME280;50353;51.420;5.682;2023-03-01T14:19:47;102244.88;;;6.94;46.63